createdAt,value
2022-10-14T00:01:23.820Z,95673.53
2022-10-14T00:03:55.049Z,95671.38
2022-10-14T00:06:26.265Z,95666.00
2022-10-14T00:08:55.008Z,95666.00
2022-10-14T00:11:25.256Z,95663.34
2022-10-14T00:13:55.943Z,95574.63
2022-10-14T00:16:27.215Z,95666.56
2022-10-14T00:18:57.499Z,95670.34
2022-10-14T00:21:26.317Z,95637.56
2022-10-14T00:23:55.265Z,95674.16
2022-10-14T00:26:25.930Z,95679.53
2022-10-14T00:28:54.659Z,95673.56
2022-10-14T00:31:23.096Z,95634.09
2022-10-14T00:33:51.790Z,95672.50
2022-10-14T00:36:24.726Z,95672.19
2022-10-14T00:38:54.009Z,95668.75
2022-10-14T00:41:24.794Z,95654.50
2022-10-14T00:43:59.599Z,95678.69
2022-10-14T00:46:30.236Z,95678.47
2022-10-14T00:48:59.996Z,95676.25
2022-10-14T00:51:31.418Z,95656.91
2022-10-14T00:53:59.871Z,95672.50
2022-10-14T00:56:31.554Z,95656.41
2022-10-14T00:59:01.648Z,95676.78
2022-10-14T01:01:29.973Z,95667.38
2022-10-14T01:03:58.483Z,95665.00
2022-10-14T01:06:42.506Z,95667.91
2022-10-14T01:09:15.527Z,95668.53
2022-10-14T01:12:09.828Z,95664.94
2022-10-14T01:14:47.206Z,95676.03
2022-10-14T01:17:24.813Z,95663.88
2022-10-14T01:20:29.731Z,95657.66
2022-10-14T01:23:19.766Z,95660.63
2022-10-14T01:26:01.975Z,95646.09
2022-10-14T01:28:45.024Z,95673.06
2022-10-14T01:31:19.506Z,95670.06
2022-10-14T01:33:53.934Z,95668.16
2022-10-14T01:36:27.310Z,95576.66
2022-10-14T01:39:02.068Z,95664.44
2022-10-14T01:41:34.565Z,95656.91
2022-10-14T01:44:07.391Z,95664.19
2022-10-14T01:46:39.623Z,95619.03
2022-10-14T01:49:13.553Z,95655.88
2022-10-14T01:51:50.476Z,95631.13
2022-10-14T01:54:23.979Z,95656.34
2022-10-14T01:56:54.746Z,95642.41
2022-10-14T01:59:25.519Z,95653.09
2022-10-14T02:01:55.360Z,95656.28
2022-10-14T02:04:24.858Z,95642.81
2022-10-14T02:07:01.633Z,95647.97
2022-10-14T02:09:40.023Z,95651.75
2022-10-14T02:12:19.071Z,95644.72
2022-10-14T02:14:55.621Z,95643.94
2022-10-14T02:17:32.598Z,95640.44
2022-10-14T02:20:09.143Z,95641.78
2022-10-14T02:22:40.872Z,95642.00
2022-10-14T02:25:14.127Z,95638.25
2022-10-14T02:27:45.984Z,95621.84
2022-10-14T02:30:16.578Z,95625.56
2022-10-14T02:32:48.192Z,95610.50
2022-10-14T02:35:19.615Z,95632.81
2022-10-14T02:37:50.169Z,95613.94
2022-10-14T02:40:24.255Z,95628.22
2022-10-14T02:42:52.777Z,95629.03
2022-10-14T02:45:22.150Z,95622.81
2022-10-14T02:47:51.918Z,95546.00
2022-10-14T02:50:20.270Z,95625.50
2022-10-14T02:52:49.194Z,95599.16
2022-10-14T02:55:17.903Z,95570.69
2022-10-14T02:57:46.635Z,95555.84
2022-10-14T03:00:16.129Z,95616.69
2022-10-14T03:02:44.500Z,95616.84
2022-10-14T03:05:14.421Z,95608.53
2022-10-14T03:07:42.722Z,95622.81
2022-10-14T03:10:11.179Z,95615.56
2022-10-14T03:12:39.627Z,95614.75
2022-10-14T03:15:09.523Z,95615.00
2022-10-14T03:17:38.117Z,95613.69
2022-10-14T03:20:07.371Z,95612.63
2022-10-14T03:22:37.167Z,95615.31
2022-10-14T03:25:05.780Z,95613.63
2022-10-14T03:27:34.149Z,95615.88
2022-10-14T03:30:02.883Z,95609.44
2022-10-14T03:32:31.375Z,95614.50
2022-10-14T03:34:59.778Z,95602.38
2022-10-14T03:37:28.127Z,95604.84
2022-10-14T03:39:57.939Z,95611.56
2022-10-14T03:42:26.544Z,95608.88
2022-10-14T03:44:54.963Z,95583.03
2022-10-14T03:47:23.608Z,95600.75
2022-10-14T03:49:52.641Z,95593.72
2022-10-14T03:52:21.505Z,95598.56
2022-10-14T03:54:50.007Z,95600.19
2022-10-14T03:57:19.819Z,95594.78
2022-10-14T03:59:48.178Z,95599.94
2022-10-14T04:02:16.500Z,95592.09
2022-10-14T04:04:45.342Z,95595.91
2022-10-14T04:07:13.683Z,95588.63
2022-10-14T04:09:42.071Z,95596.19
2022-10-14T04:12:10.415Z,95587.25
2022-10-14T04:14:40.551Z,95588.06
2022-10-14T04:17:08.931Z,95588.31
2022-10-14T04:19:37.323Z,95579.69
2022-10-14T04:22:05.983Z,95530.88
2022-10-14T04:24:34.699Z,95582.09
2022-10-14T04:27:03.119Z,95580.78
2022-10-14T04:29:31.482Z,95552.59
2022-10-14T04:32:01.529Z,95592.09
2022-10-14T04:34:29.855Z,95582.91
2022-10-14T04:36:58.404Z,95520.06
2022-10-14T04:39:26.879Z,95576.94
2022-10-14T04:41:55.138Z,95584.00
2022-10-14T04:44:23.874Z,95578.09
2022-10-14T04:46:52.263Z,95577.25
2022-10-14T04:49:22.761Z,95576.47
2022-10-14T04:51:51.061Z,95579.69
2022-10-14T04:54:19.567Z,95570.50
2022-10-14T04:56:48.031Z,95493.75
2022-10-14T04:59:16.545Z,95564.63
2022-10-14T05:01:44.915Z,95573.72
2022-10-14T05:04:13.405Z,95565.66
2022-10-14T05:06:43.536Z,95574.19
2022-10-14T05:09:11.903Z,95580.69
2022-10-14T05:11:40.280Z,95579.66
2022-10-14T05:14:08.686Z,95576.88
2022-10-14T05:16:36.979Z,95575.88
2022-10-14T05:19:05.520Z,95577.50
2022-10-14T05:21:33.995Z,95579.91
2022-10-14T05:24:04.215Z,95583.16
2022-10-14T05:26:32.787Z,95578.56
2022-10-14T05:29:01.250Z,95576.38
2022-10-14T05:31:29.559Z,95576.38
2022-10-14T05:33:57.951Z,95578.56
2022-10-14T05:36:26.459Z,95577.19
2022-10-14T05:38:58.786Z,95579.88
2022-10-14T05:41:28.655Z,95568.31
2022-10-14T05:43:57.093Z,95583.97
2022-10-14T05:46:25.511Z,95580.72
2022-10-14T05:48:53.823Z,95582.59
2022-10-14T05:51:23.093Z,95553.97
2022-10-14T05:53:51.420Z,95583.97
2022-10-14T05:56:20.391Z,95590.19
2022-10-14T05:58:50.199Z,95581.28
2022-10-14T06:01:18.519Z,95584.00
2022-10-14T06:03:46.881Z,95582.91
2022-10-14T06:06:15.879Z,95580.47
2022-10-14T06:08:45.167Z,95579.97
2022-10-14T06:11:14.030Z,95579.88
2022-10-14T06:13:43.454Z,95578.78
2022-10-14T06:16:15.089Z,95581.72
2022-10-14T06:18:43.471Z,95578.22
2022-10-14T06:21:12.969Z,95577.13
2022-10-14T06:23:41.303Z,95567.69
2022-10-14T06:26:10.334Z,95574.69
2022-10-14T06:28:39.326Z,95571.69
2022-10-14T06:31:08.435Z,95573.31
2022-10-14T06:33:38.276Z,95575.72
2022-10-14T06:36:08.312Z,95569.22
2022-10-14T06:38:36.659Z,95562.81
2022-10-14T06:41:05.063Z,95567.59
2022-10-14T06:43:35.418Z,95564.59
2022-10-14T06:46:04.926Z,95536.06
2022-10-14T06:48:33.468Z,95557.22
2022-10-14T06:51:04.122Z,95564.00
2022-10-14T06:53:32.651Z,95403.81
2022-10-14T06:56:02.348Z,95562.63
2022-10-14T06:58:31.355Z,95556.44
2022-10-14T07:01:03.672Z,95560.47
2022-10-14T07:03:32.514Z,95565.88
2022-10-14T07:06:03.986Z,95556.88
2022-10-14T07:08:32.474Z,95566.88
2022-10-14T07:11:01.196Z,95564.16
2022-10-14T07:13:29.695Z,95562.53
2022-10-14T07:15:58.115Z,95563.78
2022-10-14T07:18:26.913Z,95564.66
2022-10-14T07:20:55.199Z,95573.81
2022-10-14T07:23:25.055Z,95561.31
2022-10-14T07:25:53.732Z,95567.69
2022-10-14T07:28:22.099Z,95536.09
2022-10-14T07:30:59.430Z,95564.53
2022-10-14T07:33:28.245Z,95573.00
2022-10-14T07:35:56.935Z,95577.88
2022-10-14T07:38:26.674Z,95573.81
2022-10-14T07:41:00.452Z,95562.13
2022-10-14T07:43:28.572Z,95571.16
2022-10-14T07:46:01.874Z,95552.81
2022-10-14T07:48:33.020Z,95573.09
2022-10-14T07:51:13.517Z,95543.09
2022-10-14T07:53:43.345Z,95533.44
2022-10-14T07:56:11.857Z,95576.31
2022-10-14T07:58:44.320Z,95558.09
2022-10-14T08:01:15.018Z,95574.94
2022-10-14T08:03:44.000Z,95580.41
2022-10-14T08:06:12.982Z,95579.03
2022-10-14T08:08:44.155Z,95572.53
2022-10-14T08:11:14.827Z,95581.97
2022-10-14T08:13:46.185Z,95586.03
2022-10-14T08:16:16.959Z,95563.28
2022-10-14T08:18:46.279Z,95585.25
2022-10-14T08:21:15.902Z,95566.66
2022-10-14T08:23:45.813Z,95586.34
2022-10-14T08:26:21.707Z,95585.75
2022-10-14T08:28:50.786Z,95578.97
2022-10-14T08:31:19.459Z,95581.44
2022-10-14T08:33:48.243Z,95571.47
2022-10-14T08:36:17.398Z,95576.72
2022-10-14T08:38:47.667Z,95549.84
2022-10-14T08:41:32.219Z,95563.78
2022-10-14T08:44:12.702Z,95552.03
2022-10-14T08:46:49.405Z,95556.84
2022-10-14T08:49:27.270Z,95541.44
2022-10-14T08:52:00.794Z,95539.31
2022-10-14T08:54:38.225Z,95547.72
2022-10-14T08:57:07.938Z,95562.81
2022-10-14T08:59:41.853Z,95555.41
2022-10-14T09:02:22.999Z,95556.09
2022-10-14T09:04:52.116Z,95562.06
2022-10-14T09:07:22.562Z,95540.72
2022-10-14T09:09:56.004Z,95545.06
2022-10-14T09:12:29.739Z,95552.94
2022-10-14T09:15:03.085Z,95540.00
2022-10-14T09:17:37.992Z,95554.16
2022-10-14T09:20:18.156Z,95539.50
2022-10-14T09:22:48.541Z,95558.00
2022-10-14T09:25:19.723Z,95552.00
2022-10-14T09:27:48.495Z,95550.41
2022-10-14T09:30:19.360Z,95521.34
2022-10-14T09:32:51.614Z,95487.19
2022-10-14T09:35:26.520Z,95533.94
2022-10-14T09:37:55.624Z,95503.00
2022-10-14T09:40:31.155Z,95529.59
2022-10-14T09:43:04.395Z,95467.72
2022-10-14T09:45:49.468Z,95526.22
2022-10-14T09:48:22.039Z,95526.78
2022-10-14T09:50:53.111Z,95519.34
2022-10-14T09:53:29.235Z,95518.06
2022-10-14T09:56:01.209Z,95510.22
2022-10-14T09:58:34.273Z,95515.69
2022-10-14T10:01:03.711Z,95498.50
2022-10-14T10:03:33.986Z,95517.31
2022-10-14T10:06:06.020Z,95497.91
2022-10-14T10:08:36.199Z,95512.75
2022-10-14T10:11:09.442Z,95516.69
2022-10-14T10:13:41.750Z,95514.59
2022-10-14T10:16:21.027Z,95448.88
2022-10-14T10:18:49.864Z,95515.47
2022-10-14T10:21:21.386Z,95502.03
2022-10-14T10:23:55.520Z,95500.75
2022-10-14T10:26:31.799Z,95497.44
2022-10-14T10:29:02.719Z,95510.41
2022-10-14T10:31:53.418Z,95499.97
2022-10-14T10:34:54.318Z,95495.25
2022-10-14T10:37:31.133Z,95475.97
2022-10-14T10:40:31.892Z,95501.06
2022-10-14T10:43:21.807Z,95495.03
2022-10-14T10:46:02.388Z,95433.97
2022-10-14T10:48:43.055Z,95500.59
2022-10-14T10:51:15.767Z,95493.81
2022-10-14T10:54:03.221Z,95493.63
2022-10-14T10:56:38.915Z,95458.84
2022-10-14T10:59:35.357Z,95473.72
2022-10-14T11:02:28.709Z,95471.94
2022-10-14T11:05:03.918Z,95345.88
2022-10-14T11:07:59.925Z,95464.84
2022-10-14T11:10:52.557Z,95464.13
2022-10-14T11:13:29.360Z,95447.38
2022-10-14T11:16:08.339Z,95461.91
2022-10-14T11:18:46.456Z,95463.91
2022-10-14T11:21:25.963Z,95462.72
2022-10-14T11:24:04.693Z,95429.78
2022-10-14T11:26:53.492Z,95416.13
2022-10-14T11:29:47.397Z,95415.16
2022-10-14T11:32:24.063Z,95444.66
2022-10-14T11:35:06.235Z,95420.13
2022-10-14T11:37:45.144Z,95432.81
2022-10-14T11:40:22.567Z,95406.50
2022-10-14T11:43:07.214Z,95425.94
2022-10-14T11:45:51.852Z,95418.88
2022-10-14T11:48:39.451Z,95420.88
2022-10-14T11:51:14.486Z,95416.25
2022-10-14T11:53:50.765Z,95418.47
2022-10-14T11:56:30.659Z,95395.63
2022-10-14T11:59:21.743Z,95406.63
2022-10-14T12:01:53.940Z,95404.91
2022-10-14T12:04:29.900Z,95393.56
2022-10-14T12:07:05.828Z,95341.81
2022-10-14T12:09:40.756Z,95387.16
2022-10-14T12:12:11.835Z,95367.00
2022-10-14T12:14:44.194Z,95399.50
2022-10-14T12:17:20.765Z,95405.72
2022-10-14T12:19:52.597Z,95410.53
2022-10-14T12:22:24.529Z,95402.09
2022-10-14T12:24:55.724Z,95403.81
2022-10-14T12:27:26.992Z,95412.44
2022-10-14T12:29:57.622Z,95405.72
2022-10-14T12:32:27.564Z,95408.44
2022-10-14T12:34:58.415Z,95354.59
2022-10-14T12:37:51.617Z,95395.69
2022-10-14T12:40:31.262Z,95388.75
2022-10-14T12:43:04.142Z,95362.47
2022-10-14T12:45:34.732Z,95380.50
2022-10-14T12:48:08.566Z,95372.03
2022-10-14T12:50:40.368Z,95379.16
2022-10-14T12:53:17.932Z,95378.16
2022-10-14T12:55:51.767Z,95337.16
2022-10-14T12:58:30.461Z,95363.50
2022-10-14T13:01:03.588Z,95373.84
2022-10-14T13:03:36.126Z,95360.84
2022-10-14T13:06:32.618Z,95373.44
2022-10-14T13:09:42.024Z,95366.19
2022-10-14T13:12:42.247Z,95366.19
2022-10-14T13:15:59.780Z,95352.75
2022-10-14T13:18:51.009Z,95350.72
2022-10-14T13:21:48.867Z,95339.69
2022-10-14T13:24:24.399Z,95364.84
2022-10-14T13:27:10.630Z,95307.91
2022-10-14T13:30:04.332Z,95367.91
2022-10-14T13:32:41.263Z,95369.13
2022-10-14T13:35:19.959Z,95372.44
2022-10-14T13:37:57.957Z,95358.38
2022-10-14T13:40:31.844Z,95351.34
2022-10-14T13:43:02.129Z,95344.63
2022-10-14T13:45:38.375Z,95124.75
2022-10-14T13:48:14.014Z,95361.91
2022-10-14T13:50:44.351Z,95357.09
2022-10-14T13:53:17.880Z,95346.88
2022-10-14T13:55:54.427Z,95351.59
2022-10-14T13:58:24.324Z,95351.28
2022-10-14T14:01:01.742Z,95350.47
2022-10-14T14:03:34.035Z,95348.38
2022-10-14T14:06:03.464Z,95341.84
2022-10-14T14:08:40.810Z,95328.97
2022-10-14T14:11:19.043Z,95299.22
2022-10-14T14:13:57.556Z,95318.81
2022-10-14T14:16:34.034Z,95321.53
2022-10-14T14:19:08.363Z,95316.63
2022-10-14T14:21:37.473Z,95313.91
2022-10-14T14:24:17.407Z,95316.09
2022-10-14T14:26:47.930Z,95315.63
2022-10-14T14:29:19.270Z,95314.81
2022-10-14T14:34:39.842Z,95322.34
2022-10-14T14:39:58.177Z,95310.88
2022-10-14T14:42:29.733Z,95303.38
2022-10-14T14:45:02.792Z,95299.84
2022-10-14T14:47:33.384Z,95305.06
2022-10-14T14:50:31.398Z,95270.97
2022-10-14T14:52:52.999Z,95279.44
2022-10-14T14:55:43.607Z,95286.34
2022-10-14T14:58:24.387Z,95288.84
2022-10-14T15:00:55.095Z,95285.66
2022-10-14T15:03:25.344Z,95273.19
2022-10-14T15:05:58.686Z,95275.78
2022-10-14T15:08:30.211Z,95274.81
2022-10-14T15:11:00.628Z,95253.72
2022-10-14T15:13:45.651Z,95254.63
2022-10-14T15:16:14.356Z,95244.88
2022-10-14T15:18:43.819Z,95243.47
2022-10-14T15:21:20.308Z,95244.47
2022-10-14T15:24:03.519Z,95226.78
2022-10-14T15:26:34.980Z,95229.41
2022-10-14T15:29:16.025Z,95139.81
2022-10-14T15:31:46.391Z,95235.47
2022-10-14T15:34:20.924Z,95223.31
2022-10-14T15:36:52.393Z,95227.00
2022-10-14T15:39:21.795Z,95226.84
2022-10-14T15:41:50.234Z,95226.03
2022-10-14T15:44:20.348Z,95227.63
2022-10-14T15:47:06.299Z,95230.66
2022-10-14T15:49:39.283Z,95189.78
2022-10-14T15:52:07.571Z,95213.97
2022-10-14T15:54:36.543Z,95214.78
2022-10-14T15:57:05.899Z,95192.84
2022-10-14T15:59:36.078Z,95199.19
2022-10-14T16:02:05.556Z,95186.53
2022-10-14T16:04:37.264Z,95210.59
2022-10-14T16:07:08.267Z,95210.09
2022-10-14T16:09:36.918Z,95112.28
2022-10-14T16:12:06.637Z,95204.97
2022-10-14T16:14:36.665Z,95200.16
2022-10-14T16:17:05.350Z,95199.59
2022-10-14T16:19:35.067Z,95204.63
2022-10-14T16:22:03.639Z,95197.91
2022-10-14T16:24:31.894Z,95198.72
2022-10-14T16:27:00.387Z,95178.44
2022-10-14T16:29:28.708Z,95194.44
2022-10-14T16:31:59.402Z,95198.56
2022-10-14T16:34:27.771Z,95179.84
2022-10-14T16:36:56.154Z,95182.44
2022-10-14T16:39:24.928Z,95192.66
2022-10-14T16:41:53.555Z,95191.19
2022-10-14T16:44:28.148Z,95185.75
2022-10-14T16:47:18.891Z,95191.78
2022-10-14T16:49:49.357Z,95188.06
2022-10-14T16:52:18.455Z,95174.75
2022-10-14T16:54:47.023Z,95189.16
2022-10-14T16:57:16.153Z,95194.69
2022-10-14T16:59:44.931Z,95191.50
2022-10-14T17:02:17.937Z,95166.63
2022-10-14T17:04:48.390Z,95201.22
2022-10-14T17:07:17.669Z,95145.38
2022-10-14T17:09:46.246Z,95195.91
2022-10-14T17:12:14.982Z,95196.00
2022-10-14T17:14:43.307Z,95187.47
2022-10-14T17:17:13.267Z,95197.19
2022-10-14T17:19:43.449Z,95098.53
2022-10-14T17:22:12.439Z,95184.88
2022-10-14T17:24:41.059Z,95181.88
2022-10-14T17:27:09.605Z,95188.09
2022-10-14T17:29:38.345Z,95184.09
2022-10-14T17:32:06.917Z,95177.63
2022-10-14T17:34:35.886Z,95165.06
2022-10-14T17:39:37.673Z,95184.50
2022-10-14T17:42:06.263Z,95173.34
2022-10-14T17:44:34.661Z,95173.88
2022-10-14T17:47:03.434Z,95168.94
2022-10-14T17:49:32.675Z,95170.03
2022-10-14T17:52:02.654Z,95151.00
2022-10-14T17:54:32.424Z,95166.44
2022-10-14T17:57:00.929Z,95162.44
2022-10-14T17:59:29.349Z,95123.53
2022-10-14T18:02:02.650Z,95153.81
2022-10-14T18:04:33.405Z,95152.50
2022-10-14T18:07:02.735Z,95143.91
2022-10-14T18:09:34.224Z,95143.59
2022-10-14T18:12:08.689Z,95139.38
2022-10-14T18:14:38.203Z,95144.72
2022-10-14T18:17:06.756Z,95138.16
2022-10-14T18:19:35.587Z,95148.81
2022-10-14T18:22:04.295Z,95146.91
2022-10-14T18:24:38.664Z,95110.44
2022-10-14T18:27:07.818Z,95150.41
2022-10-14T18:29:36.502Z,95134.38
2022-10-14T18:32:04.931Z,95085.09
2022-10-14T18:34:33.864Z,95048.06
2022-10-14T18:37:02.591Z,95138.00
2022-10-14T18:39:32.120Z,95135.09
2022-10-14T18:42:02.247Z,95125.25
2022-10-14T18:44:30.977Z,95097.41
2022-10-14T18:46:59.841Z,95132.97
2022-10-14T18:49:29.646Z,95125.38
2022-10-14T18:51:59.421Z,95107.22
2022-10-14T18:54:30.547Z,95128.06
2022-10-14T18:57:00.417Z,95128.66
2022-10-14T18:59:32.480Z,95128.97
2022-10-14T19:02:02.616Z,95119.94
2022-10-14T19:04:32.320Z,95092.09
2022-10-14T19:07:02.310Z,95123.22
2022-10-14T19:09:35.813Z,95112.91
2022-10-14T19:12:26.983Z,95109.13
2022-10-14T19:14:58.436Z,95103.31
2022-10-14T19:17:28.542Z,95021.81
2022-10-14T19:20:01.207Z,95098.31
2022-10-14T19:22:32.069Z,95102.69
2022-10-14T19:25:01.773Z,95096.50
2022-10-14T19:27:30.916Z,95095.09
2022-10-14T19:30:02.034Z,95079.25
2022-10-14T19:32:31.806Z,95031.03
2022-10-14T19:35:02.377Z,95104.72
2022-10-14T19:37:31.828Z,95080.88
2022-10-14T19:40:02.490Z,95096.28
2022-10-14T19:42:32.697Z,95098.31
2022-10-14T19:45:03.946Z,95025.22
2022-10-14T19:47:34.144Z,95104.00
2022-10-14T19:50:03.789Z,95067.34
2022-10-14T19:52:33.430Z,95090.19
2022-10-14T19:55:03.385Z,95104.19
2022-10-14T19:57:33.251Z,95105.81
2022-10-14T20:00:04.728Z,95110.94
2022-10-14T20:02:34.652Z,95116.63
2022-10-14T20:05:04.784Z,95100.41
2022-10-14T20:07:34.380Z,95081.88
2022-10-14T20:10:04.133Z,95101.69
2022-10-14T20:12:34.708Z,95051.25
2022-10-14T20:15:06.331Z,95074.34
2022-10-14T20:17:36.072Z,95095.47
2022-10-14T20:20:06.220Z,95001.63
2022-10-14T20:22:36.064Z,95065.44
2022-10-14T20:25:06.038Z,95085.19
2022-10-14T20:27:35.828Z,95080.72
2022-10-14T20:30:07.780Z,95084.25
2022-10-14T20:32:37.657Z,95076.44
2022-10-14T20:35:11.541Z,95076.94
2022-10-14T20:37:44.716Z,95078.03
2022-10-14T20:40:15.617Z,95070.59
2022-10-14T20:42:45.504Z,95053.13
2022-10-14T20:45:15.319Z,95040.78
2022-10-14T20:47:43.903Z,95053.81
2022-10-14T20:50:12.364Z,94979.88
2022-10-14T20:52:40.822Z,95072.81
2022-10-14T20:55:09.685Z,95034.19
2022-10-14T20:57:38.074Z,95070.09
2022-10-14T21:00:07.404Z,95067.41
2022-10-14T21:02:37.247Z,95068.81
2022-10-14T21:05:06.422Z,95050.88
2022-10-14T21:07:35.455Z,95054.97
2022-10-14T21:10:04.172Z,95063.41
2022-10-14T21:12:32.556Z,95067.22
2022-10-14T21:15:00.944Z,95061.78
2022-10-14T21:17:29.402Z,95056.38
2022-10-14T21:19:59.359Z,95048.47
2022-10-14T21:22:55.343Z,95036.53
2022-10-14T21:25:23.751Z,95043.38
2022-10-14T21:27:52.089Z,95001.47
2022-10-14T21:30:20.465Z,95040.66
2022-10-14T21:32:48.842Z,95025.72
2022-10-14T21:35:18.595Z,94818.75
2022-10-14T21:37:46.971Z,95018.28
2022-10-14T21:40:15.716Z,95024.28
2022-10-14T21:42:44.127Z,95019.06
2022-10-14T21:45:12.610Z,95021.47
2022-10-14T21:47:41.033Z,95018.88
2022-10-14T21:50:10.093Z,95000.41
2022-10-14T21:52:39.921Z,94999.00
2022-10-14T21:55:08.978Z,94960.41
2022-10-14T21:57:37.799Z,95002.66
2022-10-14T22:00:08.939Z,95013.16
2022-10-14T22:02:37.611Z,94999.50
2022-10-14T22:05:06.683Z,95007.94
2022-10-14T22:07:35.053Z,94986.28
2022-10-14T22:10:25.636Z,95010.03
2022-10-14T22:12:53.967Z,94999.00
2022-10-14T22:15:22.763Z,94995.38
2022-10-14T22:17:51.344Z,94988.97
2022-10-14T22:20:20.189Z,94973.72
2022-10-14T22:22:48.555Z,94973.34
2022-10-14T22:25:18.640Z,94961.00
2022-10-14T22:27:47.352Z,94982.94
2022-10-14T22:30:16.731Z,94986.78
2022-10-14T22:32:45.419Z,94988.97
2022-10-14T22:35:13.708Z,94981.78
2022-10-14T22:37:42.260Z,94984.19
2022-10-14T22:40:12.004Z,94989.84
2022-10-14T22:42:42.463Z,94975.03
2022-10-14T22:45:12.688Z,94978.66
2022-10-14T22:47:41.032Z,94971.53
2022-10-14T22:50:10.051Z,94974.31
2022-10-14T22:52:39.129Z,94967.22
2022-10-14T22:55:09.141Z,94970.63
2022-10-14T22:57:37.549Z,94959.00
2022-10-14T23:00:08.499Z,94962.00
2022-10-14T23:02:37.009Z,94957.63
2022-10-14T23:05:06.012Z,94953.41
2022-10-14T23:07:34.720Z,94947.38
2022-10-14T23:10:03.143Z,94923.03
2022-10-14T23:12:31.593Z,94956.84
2022-10-14T23:15:00.092Z,94950.81
2022-10-14T23:17:31.061Z,94955.84
2022-10-14T23:19:59.367Z,94952.66
2022-10-14T23:22:28.008Z,94958.25
2022-10-14T23:24:56.395Z,94942.84
2022-10-14T23:27:24.838Z,94868.97
2022-10-14T23:29:53.259Z,94925.34
2022-10-14T23:32:21.630Z,94955.47
2022-10-14T23:34:51.595Z,94918.69
2022-10-14T23:37:20.334Z,94945.09
2022-10-14T23:39:49.461Z,94938.75
2022-10-14T23:42:17.875Z,94948.28
2022-10-14T23:44:46.311Z,94939.88
2022-10-14T23:47:14.797Z,94941.16
2022-10-14T23:49:43.182Z,94947.47
2022-10-14T23:52:12.956Z,94948.78
2022-10-14T23:54:41.303Z,94944.16
2022-10-14T23:57:09.755Z,94934.47
2022-10-14T23:59:38.218Z,94940.97
